Twin Lakes, Connecticut
Current Conditions -  °F | °C
As of 4:54 AM on Wednesday 26 Nov 2014 (Local Time) from KPSF Reporting Station
Clear Clear  
Wind Chill: 31°   Ceiling: Unl
Heat Index: 35°   Visibility: 10mi
Dew Point: 27°   Wind: 5mph
Humidity: 72%   Direction: 290°WNW
Pressure: 30.17"   Gusts: NA
Location:  41.9834°N, 73.4219°W
Report Text: KPSF 260954Z AUTO 29004KT 10SM CLR 02/M03 A3017 RMK AO2 SLP217 T00171028
Loading
Personal Weather Stations






























Interactive Weather Map New forecast layout! Learn more

10-Day Weather Forecast

Advertisements
Track Severe Weather on mobile